Time;durP1;ratioP1;P1;durP2;ratioP2;P2;SDS_P1;SDS_P2;PMS_P1;PMS_P2;Temp;Humidity;BMP_temperature;BMP_pressure;BME280_temperature;BME280_humidity;BME280_pressure;Samples;Min_cycle;Max_cycle;Signal;HPM_P1;HPM_P2
2022/10/28 00:03:44;;;;;;;13.10;8.60;;;21.70;72.00;;;;;;214560;1288;24427;-57
2022/10/28 00:08:49;;;;;;;13.90;9.00;;;21.70;72.10;;;;;;213509;1287;25253;-56
2022/10/28 00:13:55;;;;;;;13.30;9.40;;;21.70;72.30;;;;;;213767;1288;25343;-57
2022/10/28 00:19:00;;;;;;;12.40;8.80;;;21.60;72.00;;;;;;213646;1284;23323;-58
2022/10/28 00:24:05;;;;;;;12.30;8.80;;;21.60;72.30;;;;;;213826;1296;22857;-57
2022/10/28 00:29:11;;;;;;;12.20;8.40;;;21.60;72.30;;;;;;213664;1284;22474;-57
2022/10/28 00:34:17;;;;;;;13.20;9.30;;;21.60;72.70;;;;;;213690;1288;24036;-57
2022/10/28 00:39:24;;;;;;;12.10;9.20;;;21.60;72.50;;;;;;213667;1293;22492;-56
2022/10/28 00:44:39;;;;;;;13.80;9.00;;;21.60;72.50;;;;;;213747;1291;25329;-56
2022/10/28 00:49:45;;;;;;;12.60;8.80;;;21.60;72.10;;;;;;213662;1284;22942;-56
2022/10/28 00:54:51;;;;;;;11.90;8.50;;;21.60;72.70;;;;;;213359;1294;22517;-56
2022/10/28 00:59:55;;;;;;;11.70;8.50;;;21.60;72.20;;;;;;214284;1285;25235;-57
2022/10/28 01:04:59;;;;;;;11.10;7.90;;;21.60;72.20;;;;;;213446;1288;24816;-57
2022/10/28 01:10:03;;;;;;;10.90;8.00;;;21.50;72.20;;;;;;213516;1283;24237;-56
2022/10/28 01:15:29;;;;;;;11.80;8.70;;;21.50;72.20;;;;;;213883;1288;22617;-56
2022/10/28 01:20:42;;;;;;;12.10;8.60;;;21.50;72.20;;;;;;213727;1296;24266;-57
2022/10/28 01:26:21;;;;;;;10.70;8.50;;;21.60;72.20;;;;;;213518;1284;24261;-56
2022/10/28 01:31:44;;;;;;;10.30;8.40;;;21.50;72.20;;;;;;213710;1286;25278;-55
2022/10/28 01:36:56;;;;;;;11.50;8.20;;;21.50;72.10;;;;;;213568;1287;22690;-57
2022/10/28 01:42:34;;;;;;;11.80;8.50;;;21.50;72.20;;;;;;213518;1283;24247;-56
2022/10/28 01:47:46;;;;;;;11.20;8.40;;;21.50;72.10;;;;;;213670;1284;25221;-57
2022/10/28 01:52:53;;;;;;;10.60;8.00;;;21.50;72.20;;;;;;213431;1294;24255;-57
2022/10/28 01:58:00;;;;;;;12.90;7.40;;;21.50;72.10;;;;;;213470;1303;26515;-56
2022/10/28 02:03:06;;;;;;;11.30;7.90;;;21.40;72.30;;;;;;213546;1293;22496;-59
2022/10/28 02:08:19;;;;;;;12.00;8.50;;;21.40;72.60;;;;;;213620;1286;22474;-57
2022/10/28 02:13:31;;;;;;;12.10;7.80;;;21.40;72.50;;;;;;213439;1297;22982;-58
2022/10/28 02:18:48;;;;;;;10.40;7.80;;;21.40;72.30;;;;;;213636;1291;22624;-56
2022/10/28 02:23:57;;;;;;;10.80;6.90;;;21.40;72.20;;;;;;213477;1287;24780;-58
2022/10/28 02:29:50;;;;;;;9.30;7.40;;;21.40;72.40;;;;;;213555;1286;24243;-57
2022/10/28 02:35:00;;;;;;;12.50;7.60;;;21.40;72.30;;;;;;213035;1283;22474;-57
2022/10/28 02:40:08;;;;;;;11.40;7.20;;;21.40;72.80;;;;;;213578;1283;22478;-57
2022/10/28 02:45:20;;;;;;;10.70;8.10;;;21.40;72.40;;;;;;213589;1294;22644;-53
2022/10/28 02:50:29;;;;;;;11.80;7.50;;;21.40;72.40;;;;;;220685;1292;24211;-57
2022/10/28 02:55:38;;;;;;;10.00;7.30;;;21.30;72.30;;;;;;214536;1286;23925;-57
2022/10/28 03:00:44;;;;;;;8.90;6.70;;;21.30;72.30;;;;;;213527;1284;24404;-57
2022/10/28 03:05:47;;;;;;;9.60;7.40;;;21.40;72.30;;;;;;213705;1283;22598;-58
2022/10/28 03:10:51;;;;;;;8.70;7.10;;;21.30;72.30;;;;;;213534;1283;25326;-58
2022/10/28 03:15:54;;;;;;;10.60;7.70;;;21.30;72.40;;;;;;213472;1289;22498;-57
2022/10/28 03:20:58;;;;;;;8.90;7.00;;;21.30;72.30;;;;;;213428;1291;24352;-57
2022/10/28 03:26:01;;;;;;;9.60;6.80;;;21.30;72.30;;;;;;213551;1293;22520;-58
2022/10/28 03:31:05;;;;;;;10.30;6.50;;;21.30;72.70;;;;;;213555;1283;22466;-56
2022/10/28 03:36:08;;;;;;;8.80;6.60;;;21.30;72.70;;;;;;213643;1297;24027;-54
2022/10/28 03:41:11;;;;;;;9.40;7.00;;;21.30;72.50;;;;;;213488;1286;24245;-57
2022/10/28 03:46:15;;;;;;;9.20;7.10;;;21.30;72.30;;;;;;213607;1287;24310;-58
2022/10/28 03:51:18;;;;;;;8.70;7.20;;;21.30;72.40;;;;;;213522;1293;22543;-56
2022/10/28 03:56:22;;;;;;;10.00;6.90;;;21.30;72.30;;;;;;213533;1293;22581;-57
2022/10/28 04:01:25;;;;;;;9.40;6.70;;;21.20;72.40;;;;;;213549;1282;23890;-58
2022/10/28 04:06:29;;;;;;;9.50;6.70;;;21.20;72.40;;;;;;213599;1297;25525;-57
2022/10/28 04:11:32;;;;;;;8.20;6.30;;;21.20;72.40;;;;;;213424;1294;22484;-58
2022/10/28 04:16:36;;;;;;;11.30;6.70;;;21.20;72.50;;;;;;213575;1283;22480;-57
2022/10/28 04:21:39;;;;;;;9.00;6.80;;;21.20;72.70;;;;;;213653;1284;22482;-57
2022/10/28 04:26:42;;;;;;;8.80;6.20;;;21.20;73.00;;;;;;213466;1287;24271;-57
2022/10/28 04:31:46;;;;;;;7.50;6.10;;;21.20;72.50;;;;;;213461;1291;22585;-56
2022/10/28 04:36:54;;;;;;;8.70;6.50;;;21.20;71.80;;;;;;213624;1293;25250;-57
2022/10/28 04:41:57;;;;;;;8.10;6.60;;;21.20;72.40;;;;;;213608;1296;22953;-58
2022/10/28 04:47:01;;;;;;;8.30;6.40;;;21.20;72.40;;;;;;213447;1283;24246;-56
2022/10/28 04:52:05;;;;;;;7.30;6.00;;;21.10;72.50;;;;;;213623;1287;23905;-58
2022/10/28 04:57:12;;;;;;;9.00;7.10;;;21.20;72.50;;;;;;213710;1291;22485;-58
2022/10/28 05:02:16;;;;;;;8.10;5.90;;;21.20;72.40;;;;;;213426;1282;22473;-58
2022/10/28 05:07:19;;;;;;;8.50;6.00;;;21.20;72.50;;;;;;213491;1283;22722;-58
2022/10/28 05:12:25;;;;;;;7.80;6.00;;;21.10;72.50;;;;;;213564;1283;24782;-62
2022/10/28 05:17:30;;;;;;;8.00;6.20;;;21.10;72.60;;;;;;213501;1288;25494;-61
2022/10/28 05:22:34;;;;;;;8.80;6.80;;;21.10;72.60;;;;;;213505;1286;22544;-57
2022/10/28 05:27:38;;;;;;;7.60;6.00;;;21.10;72.90;;;;;;213552;1284;22590;-58
2022/10/28 05:32:41;;;;;;;9.10;6.00;;;21.10;72.50;;;;;;213364;1301;24382;-58
2022/10/28 05:37:45;;;;;;;8.90;6.20;;;21.10;72.50;;;;;;213390;1283;23842;-58
2022/10/28 05:42:49;;;;;;;11.50;5.60;;;21.00;72.60;;;;;;213571;1291;23823;-57
2022/10/28 05:48:05;;;;;;;10.20;6.00;;;21.10;72.70;;;;;;213676;1288;23984;-57
2022/10/28 05:53:14;;;;;;;8.80;6.00;;;21.10;72.60;;;;;;213447;1284;24247;-59
2022/10/28 05:58:17;;;;;;;7.60;5.60;;;21.20;73.00;;;;;;213632;1288;25654;-58
2022/10/28 06:03:21;;;;;;;10.40;6.40;;;21.20;73.20;;;;;;213670;1290;22505;-58
2022/10/28 06:08:29;;;;;;;10.10;5.70;;;21.20;74.30;;;;;;213475;1288;167199;-58
2022/10/28 06:13:33;;;;;;;11.00;5.20;;;21.10;73.70;;;;;;213595;1283;26630;-59
2022/10/28 06:18:37;;;;;;;12.30;6.20;;;21.10;73.50;;;;;;213530;1286;24275;-57
2022/10/28 06:23:40;;;;;;;8.60;5.80;;;21.10;73.40;;;;;;213508;1288;25160;-58
2022/10/28 06:28:47;;;;;;;10.00;6.70;;;21.20;73.10;;;;;;213599;1281;24121;-59
2022/10/28 06:33:50;;;;;;;22.20;6.80;;;21.20;72.80;;;;;;213703;1280;22560;-57
2022/10/28 06:38:54;;;;;;;10.80;6.10;;;21.20;72.70;;;;;;213739;1284;25635;-57
2022/10/28 06:43:58;;;;;;;12.60;6.20;;;21.10;72.80;;;;;;213522;1281;22748;-58
2022/10/28 06:49:02;;;;;;;16.30;6.20;;;21.20;72.50;;;;;;213493;1287;23023;-56
2022/10/28 06:54:06;;;;;;;11.90;6.20;;;21.30;72.30;;;;;;213609;1281;22612;-57
2022/10/28 06:59:12;;;;;;;11.60;6.90;;;21.30;72.40;;;;;;213272;1283;24786;-58
2022/10/28 07:04:16;;;;;;;13.70;6.40;;;21.30;71.80;;;;;;213400;1283;24062;-59
2022/10/28 07:09:20;;;;;;;12.70;6.80;;;21.40;71.80;;;;;;213503;1281;22604;-59
2022/10/28 07:14:26;;;;;;;10.00;6.10;;;21.30;71.30;;;;;;213457;1288;22724;-57
2022/10/28 07:19:32;;;;;;;11.00;6.40;;;21.40;71.10;;;;;;213473;1288;22462;-58
2022/10/28 07:24:35;;;;;;;9.40;6.10;;;21.40;71.50;;;;;;213510;1280;25651;-57
2022/10/28 07:29:43;;;;;;;11.60;6.30;;;21.30;71.20;;;;;;213272;1283;22863;-58
2022/10/28 07:34:48;;;;;;;14.20;6.80;;;21.30;71.10;;;;;;213378;1288;24830;-57
2022/10/28 07:39:52;;;;;;;15.90;7.50;;;21.40;70.90;;;;;;213642;1286;22523;-56
2022/10/28 07:44:57;;;;;;;10.10;6.40;;;21.40;71.20;;;;;;213621;1284;22604;-54
2022/10/28 07:50:06;;;;;;;10.50;6.30;;;21.40;70.90;;;;;;213422;1285;23471;-57
2022/10/28 07:55:13;;;;;;;11.50;6.30;;;21.30;70.70;;;;;;213406;1283;22539;-57
2022/10/28 08:00:20;;;;;;;11.20;5.50;;;21.30;70.80;;;;;;213440;1288;24408;-55
2022/10/28 08:05:30;;;;;;;9.80;6.40;;;21.30;70.70;;;;;;213358;1288;22487;-56
2022/10/28 08:10:40;;;;;;;8.80;6.40;;;21.30;70.80;;;;;;213496;1287;22503;-61
2022/10/28 08:15:55;;;;;;;9.70;6.10;;;21.30;70.80;;;;;;213380;1302;22488;-56
2022/10/28 08:21:03;;;;;;;10.40;5.80;;;21.30;71.10;;;;;;214163;1284;22484;-55
2022/10/28 08:26:12;;;;;;;7.70;5.60;;;21.40;70.50;;;;;;213307;1288;22851;-58
2022/10/28 08:31:16;;;;;;;8.30;5.80;;;21.40;70.30;;;;;;213434;1294;25432;-56
2022/10/28 08:36:20;;;;;;;9.80;6.20;;;21.50;70.20;;;;;;213395;1289;22484;-54
2022/10/28 08:41:47;;;;;;;9.20;5.80;;;21.50;69.90;;;;;;213376;1283;24333;-57
2022/10/28 08:47:26;;;;;;;7.30;5.40;;;21.50;70.50;;;;;;213623;1288;25116;-55
2022/10/28 08:52:42;;;;;;;8.30;5.40;;;21.60;69.80;;;;;;213512;1281;24685;-57
2022/10/28 08:57:57;;;;;;;10.10;5.10;;;21.60;69.80;;;;;;213303;1286;22487;-58
2022/10/28 09:03:10;;;;;;;9.80;5.40;;;21.60;69.70;;;;;;213762;1293;25639;-58
2022/10/28 09:08:25;;;;;;;8.30;5.50;;;21.60;69.40;;;;;;213573;1287;26526;-57
2022/10/28 09:13:51;;;;;;;12.60;5.00;;;21.60;69.40;;;;;;213579;1288;22497;-56
2022/10/28 09:19:04;;;;;;;7.70;5.40;;;21.60;69.70;;;;;;213617;1283;24255;-56
2022/10/28 09:24:17;;;;;;;11.00;5.60;;;21.70;69.20;;;;;;213601;1287;22603;-58
2022/10/28 09:29:29;;;;;;;7.60;5.30;;;21.70;69.00;;;;;;213441;1293;24392;-54
2022/10/28 09:34:48;;;;;;;9.00;5.70;;;21.80;68.80;;;;;;213465;1287;22656;-55
2022/10/28 09:40:00;;;;;;;10.20;5.30;;;21.80;69.00;;;;;;213490;1295;22475;-54
2022/10/28 09:45:10;;;;;;;6.90;5.00;;;21.90;68.60;;;;;;213637;1294;22705;-56
2022/10/28 09:50:21;;;;;;;5.70;4.20;;;21.90;68.40;;;;;;213589;1280;22651;-56
2022/10/28 09:55:24;;;;;;;7.20;4.50;;;22.00;69.00;;;;;;213631;1288;25248;-56
2022/10/28 10:00:28;;;;;;;8.10;5.30;;;22.00;68.20;;;;;;213541;1288;24232;-58
2022/10/28 10:05:36;;;;;;;5.90;4.30;;;22.10;68.10;;;;;;213549;1302;23155;-58
2022/10/28 10:10:59;;;;;;;7.50;4.30;;;22.20;68.00;;;;;;213499;1287;24258;-58
2022/10/28 10:16:16;;;;;;;6.20;4.50;;;22.20;67.80;;;;;;213508;1300;22481;-58
2022/10/28 10:21:56;;;;;;;6.10;4.20;;;22.30;67.90;;;;;;213651;1280;22528;-58
2022/10/28 10:27:02;;;;;;;7.20;4.30;;;22.30;67.90;;;;;;212831;1297;24255;-58
2022/10/28 10:32:16;;;;;;;10.40;4.50;;;22.40;67.70;;;;;;213523;1281;22627;-56
2022/10/28 10:37:21;;;;;;;6.00;4.30;;;22.40;67.70;;;;;;213535;1288;24316;-57
2022/10/28 10:42:26;;;;;;;6.40;4.20;;;22.50;67.90;;;;;;213602;1283;24465;-57
2022/10/28 10:47:29;;;;;;;8.50;4.20;;;22.50;67.80;;;;;;213643;1288;24243;-58
2022/10/28 10:52:33;;;;;;;4.60;3.70;;;22.60;67.70;;;;;;213588;1290;22515;-58
2022/10/28 10:57:45;;;;;;;6.40;4.30;;;22.70;67.60;;;;;;213874;1281;24265;-58
2022/10/28 11:02:50;;;;;;;6.20;3.80;;;22.70;67.50;;;;;;213724;1283;22568;-58
2022/10/28 11:08:03;;;;;;;5.80;3.90;;;22.80;67.40;;;;;;213594;1288;25389;-60
2022/10/28 11:13:26;;;;;;;5.10;3.90;;;22.90;67.50;;;;;;213730;1288;23756;-58
2022/10/28 11:18:40;;;;;;;6.80;3.90;;;22.90;67.30;;;;;;213765;1288;25462;-59
2022/10/28 11:23:58;;;;;;;5.30;3.40;;;23.00;67.30;;;;;;213755;1290;24243;-55
2022/10/28 11:29:13;;;;;;;7.20;3.70;;;23.00;67.00;;;;;;213637;1280;25619;-58
2022/10/28 11:34:25;;;;;;;6.20;3.70;;;23.00;67.00;;;;;;213438;1288;25291;-56
2022/10/28 11:39:32;;;;;;;4.10;3.00;;;23.00;67.10;;;;;;213695;1288;25639;-56
2022/10/28 11:44:44;;;;;;;5.60;3.40;;;23.10;67.00;;;;;;213568;1286;22550;-58
2022/10/28 11:50:01;;;;;;;5.30;3.40;;;23.10;66.90;;;;;;213366;1288;23955;-58
2022/10/28 11:55:21;;;;;;;5.00;3.20;;;23.10;66.80;;;;;;213629;1291;25389;-58
2022/10/28 12:00:40;;;;;;;7.40;3.50;;;23.20;66.70;;;;;;213570;1280;22628;-56
2022/10/28 12:06:06;;;;;;;6.10;3.20;;;23.30;67.10;;;;;;213626;1280;24254;-57
2022/10/28 12:11:16;;;;;;;4.60;3.20;;;23.30;66.80;;;;;;213618;1287;22486;-56
2022/10/28 12:16:43;;;;;;;5.50;3.50;;;23.30;67.10;;;;;;213633;1286;22493;-58
2022/10/28 12:21:49;;;;;;;6.50;3.50;;;23.30;66.90;;;;;;213581;1288;22482;-55
2022/10/28 12:27:00;;;;;;;5.70;3.50;;;23.30;66.50;;;;;;213677;1286;22719;-57
2022/10/28 12:32:07;;;;;;;8.20;3.30;;;23.40;67.10;;;;;;213740;1282;24827;-58
2022/10/28 12:37:23;;;;;;;9.40;3.10;;;23.30;66.50;;;;;;213566;1284;24101;-57
2022/10/28 12:42:30;;;;;;;6.00;3.20;;;23.40;66.60;;;;;;213519;1286;22473;-56
2022/10/28 12:47:45;;;;;;;5.20;2.60;;;23.40;66.70;;;;;;213465;1288;23001;-57
2022/10/28 12:52:53;;;;;;;5.90;3.00;;;23.40;67.10;;;;;;213489;1286;22488;-58
2022/10/28 12:58:17;;;;;;;5.30;3.00;;;23.40;67.10;;;;;;213606;1303;24222;-57
2022/10/28 13:03:47;;;;;;;6.30;2.80;;;23.40;66.50;;;;;;213697;1287;23901;-57
2022/10/28 13:09:13;;;;;;;4.90;3.00;;;23.40;66.40;;;;;;213575;1288;22556;-56
2022/10/28 13:14:38;;;;;;;7.80;3.20;;;23.40;66.30;;;;;;213492;1290;24245;-57
2022/10/28 13:20:29;;;;;;;3.60;2.60;;;23.50;66.30;;;;;;213630;1294;25331;-57
2022/10/28 13:25:56;;;;;;;6.80;2.60;;;23.50;66.10;;;;;;213622;1281;22485;-56
2022/10/28 13:31:06;;;;;;;5.20;3.00;;;23.50;66.20;;;;;;213585;1288;22488;-58
2022/10/28 13:36:37;;;;;;;4.50;2.70;;;23.40;65.90;;;;;;213599;1289;24432;-58
2022/10/28 13:41:47;;;;;;;4.50;2.70;;;23.50;65.90;;;;;;213322;1287;25549;-57
2022/10/28 13:47:20;;;;;;;10.50;3.00;;;23.50;65.80;;;;;;213536;1287;25551;-58
2022/10/28 13:52:31;;;;;;;4.90;2.70;;;23.50;65.80;;;;;;213443;1283;22470;-59
2022/10/28 13:57:37;;;;;;;5.60;3.10;;;23.50;66.20;;;;;;213537;1288;23948;-57
2022/10/28 14:02:55;;;;;;;7.90;2.80;;;23.50;65.80;;;;;;213568;1288;23597;-58
2022/10/28 14:08:06;;;;;;;6.90;2.80;;;23.50;65.90;;;;;;213439;1284;25762;-58
2022/10/28 14:13:19;;;;;;;6.80;2.60;;;23.40;65.90;;;;;;213601;1288;22522;-58
2022/10/28 14:18:32;;;;;;;6.70;2.60;;;23.40;66.50;;;;;;213599;1288;25545;-57
2022/10/28 14:24:08;;;;;;;6.10;3.00;;;23.40;66.30;;;;;;213581;1280;22498;-56
2022/10/28 14:29:22;;;;;;;5.10;3.20;;;23.40;66.50;;;;;;213524;1290;24350;-58
2022/10/28 14:34:35;;;;;;;5.50;3.00;;;23.40;66.50;;;;;;213487;1287;24058;-56
2022/10/28 14:39:48;;;;;;;3.90;2.70;;;23.30;66.60;;;;;;213506;1280;23882;-59
2022/10/28 14:45:33;;;;;;;3.80;2.80;;;23.30;66.70;;;;;;213669;1291;24238;-56
2022/10/28 14:50:42;;;;;;;5.80;2.40;;;23.30;66.70;;;;;;213688;1280;24252;-58
2022/10/28 14:56:08;;;;;;;6.30;2.60;;;23.30;66.70;;;;;;213653;1290;22624;-58
2022/10/28 15:01:24;;;;;;;5.50;2.90;;;23.30;67.10;;;;;;213609;1280;22560;-55
2022/10/28 15:06:30;;;;;;;6.70;3.10;;;23.30;66.80;;;;;;213496;1288;25539;-56
2022/10/28 15:11:35;;;;;;;6.00;2.60;;;23.20;66.90;;;;;;213417;1297;23872;-58
2022/10/28 15:16:48;;;;;;;6.60;2.60;;;23.20;67.20;;;;;;213329;1280;23156;-57
2022/10/28 15:22:21;;;;;;;9.70;2.80;;;23.20;67.50;;;;;;213401;1283;22539;-58
2022/10/28 15:27:27;;;;;;;;;;;23.20;68.00;;;;;;213362;1289;24923;-56
2022/10/28 15:32:34;;;;;;;5.90;3.00;;;23.20;67.80;;;;;;213315;1295;22606;-58
2022/10/28 15:37:45;;;;;;;4.80;2.70;;;23.10;67.70;;;;;;213346;1280;25371;-57
2022/10/28 15:43:08;;;;;;;6.20;2.60;;;23.10;67.80;;;;;;213367;1286;22497;-56
2022/10/28 15:48:24;;;;;;;7.80;3.50;;;23.10;68.40;;;;;;213372;1288;25539;-56
2022/10/28 15:53:41;;;;;;;16.90;4.10;;;23.10;68.00;;;;;;213448;1290;22864;-57
2022/10/28 15:58:59;;;;;;;13.10;3.80;;;23.10;69.70;;;;;;213427;1286;26047;-56
2022/10/28 16:04:27;;;;;;;11.20;3.20;;;23.10;69.20;;;;;;213632;1281;24228;-58
2022/10/28 16:09:46;;;;;;;8.40;3.10;;;23.10;69.30;;;;;;213554;1294;22954;-58
2022/10/28 16:14:58;;;;;;;10.40;3.30;;;23.10;70.00;;;;;;213768;1288;24050;-58
2022/10/28 16:20:24;;;;;;;9.90;3.30;;;23.20;70.10;;;;;;213484;1288;22445;-59
2022/10/28 16:25:31;;;;;;;19.60;3.60;;;23.20;70.40;;;;;;213866;1280;24293;-58
2022/10/28 16:30:34;;;;;;;9.60;3.30;;;23.20;71.00;;;;;;213779;1288;22717;-59
2022/10/28 16:35:38;;;;;;;11.90;3.40;;;23.30;71.20;;;;;;213552;1288;24275;-58
2022/10/28 16:40:41;;;;;;;14.30;3.30;;;23.30;70.20;;;;;;213671;1288;24855;-60
2022/10/28 16:45:56;;;;;;;12.40;4.00;;;23.30;70.80;;;;;;213515;1287;22943;-62
2022/10/28 16:51:03;;;;;;;11.50;3.40;;;23.20;70.80;;;;;;213580;1280;22511;-62
2022/10/28 16:56:09;;;;;;;6.60;3.20;;;23.20;70.70;;;;;;213468;1280;22549;-62
2022/10/28 17:01:21;;;;;;;7.80;3.40;;;23.20;70.90;;;;;;213683;1286;22483;-62
2022/10/28 17:06:25;;;;;;;12.80;3.30;;;23.20;70.50;;;;;;213655;1285;26740;-63
2022/10/28 17:11:29;;;;;;;9.00;3.10;;;23.20;70.20;;;;;;213606;1280;23891;-61
2022/10/28 17:16:33;;;;;;;8.60;3.20;;;23.20;70.20;;;;;;213709;1289;22497;-61
2022/10/28 17:21:42;;;;;;;6.10;3.30;;;23.20;70.00;;;;;;213735;1293;24263;-60
2022/10/28 17:26:50;;;;;;;12.10;4.00;;;23.10;70.00;;;;;;213482;1287;22669;-60
2022/10/28 17:31:54;;;;;;;7.70;3.20;;;23.10;70.20;;;;;;213562;1287;23868;-60
2022/10/28 17:37:02;;;;;;;10.80;3.10;;;23.20;70.30;;;;;;213448;1288;25467;-60
2022/10/28 17:42:08;;;;;;;10.10;3.60;;;23.20;70.00;;;;;;213529;1288;25556;-61
2022/10/28 17:47:12;;;;;;;12.30;3.60;;;23.10;70.00;;;;;;213771;1288;22943;-62
2022/10/28 17:52:16;;;;;;;9.40;4.00;;;23.10;69.90;;;;;;213490;1296;24276;-59
2022/10/28 17:57:19;;;;;;;7.20;3.30;;;23.10;69.60;;;;;;213734;1288;22709;-59
2022/10/28 18:02:25;;;;;;;8.90;3.70;;;23.00;69.70;;;;;;213709;1286;22716;-57
2022/10/28 18:07:29;;;;;;;9.00;3.60;;;23.00;69.40;;;;;;213407;1290;153908;-58
2022/10/28 18:12:33;;;;;;;9.80;3.80;;;23.00;69.80;;;;;;213759;1294;22474;-59
2022/10/28 18:17:38;;;;;;;12.90;4.00;;;23.00;69.40;;;;;;213376;1303;22541;-58
2022/10/28 18:22:45;;;;;;;12.10;3.80;;;22.90;69.20;;;;;;213470;1288;22498;-60
2022/10/28 18:27:49;;;;;;;9.70;4.50;;;22.90;69.30;;;;;;213422;1286;23862;-60
2022/10/28 18:32:53;;;;;;;8.30;3.90;;;22.90;69.30;;;;;;213418;1288;23489;-59
2022/10/28 18:38:00;;;;;;;9.40;3.80;;;22.90;70.00;;;;;;213436;1287;26590;-59
2022/10/28 18:43:03;;;;;;;9.70;4.20;;;22.90;69.40;;;;;;213481;1283;26461;-59
2022/10/28 18:48:10;;;;;;;8.50;3.60;;;22.90;69.40;;;;;;213463;1288;22633;-58
2022/10/28 18:53:20;;;;;;;13.60;4.70;;;22.90;69.70;;;;;;213404;1290;24333;-59
2022/10/28 18:58:26;;;;;;;19.30;5.70;;;22.90;69.80;;;;;;213746;1288;22584;-59
2022/10/28 19:03:30;;;;;;;18.40;6.00;;;22.90;70.20;;;;;;213682;1296;25546;-59
2022/10/28 19:08:38;;;;;;;24.00;5.50;;;22.90;70.50;;;;;;213604;1281;22509;-59
2022/10/28 19:13:45;;;;;;;15.20;4.90;;;22.90;71.00;;;;;;213554;1288;22482;-60
2022/10/28 19:18:56;;;;;;;14.00;5.80;;;22.90;72.00;;;;;;213601;1285;22602;-60
2022/10/28 19:24:26;;;;;;;12.00;4.90;;;22.90;71.20;;;;;;213471;1299;22551;-60
2022/10/28 19:29:49;;;;;;;11.30;4.60;;;22.90;71.40;;;;;;213450;1286;24270;-59
2022/10/28 19:35:05;;;;;;;16.10;4.80;;;22.90;70.70;;;;;;213684;1283;22553;-59
2022/10/28 19:40:39;;;;;;;12.80;4.40;;;22.90;71.10;;;;;;213573;1290;24412;-59
2022/10/28 19:46:27;;;;;;;11.90;5.30;;;22.90;70.50;;;;;;213690;1286;22696;-59
2022/10/28 19:51:48;;;;;;;15.50;4.70;;;22.90;70.60;;;;;;212833;1290;24384;-59
2022/10/28 19:57:09;;;;;;;13.40;5.00;;;22.90;70.50;;;;;;212876;1291;24210;-59
2022/10/28 20:02:35;;;;;;;13.50;5.10;;;22.80;70.60;;;;;;212926;1313;25362;-60
2022/10/28 20:07:44;;;;;;;13.50;5.40;;;22.80;70.80;;;;;;212835;1296;24234;-59
2022/10/28 20:12:47;;;;;;;14.80;5.30;;;22.80;70.80;;;;;;212795;1296;22670;-57
2022/10/28 20:17:51;;;;;;;11.30;5.30;;;22.90;70.70;;;;;;212887;1291;22522;-58
2022/10/28 20:22:54;;;;;;;13.40;5.30;;;22.90;70.70;;;;;;213206;1296;25361;-58
2022/10/28 20:28:01;;;;;;;12.10;5.70;;;22.80;71.00;;;;;;213448;1290;24379;-59
2022/10/28 20:33:05;;;;;;;18.00;5.60;;;22.80;70.50;;;;;;213326;1287;22905;-58
2022/10/28 20:38:14;;;;;;;13.10;5.40;;;22.70;70.40;;;;;;213440;1297;24061;-58
2022/10/28 20:43:21;;;;;;;14.60;5.20;;;22.70;70.60;;;;;;213345;1289;24352;-59
2022/10/28 20:48:29;;;;;;;12.80;5.50;;;22.70;70.60;;;;;;213404;1286;23368;-58
2022/10/28 20:53:35;;;;;;;13.40;5.80;;;22.70;70.80;;;;;;213382;1288;24211;-59
2022/10/28 20:58:40;;;;;;;13.20;5.40;;;22.70;70.90;;;;;;213440;1297;25563;-57
2022/10/28 21:03:45;;;;;;;10.20;4.90;;;22.70;70.80;;;;;;213310;1305;22558;-59
2022/10/28 21:08:48;;;;;;;12.40;4.90;;;22.70;70.90;;;;;;213376;1298;22478;-58
2022/10/28 21:13:57;;;;;;;12.40;5.20;;;22.60;71.00;;;;;;213329;1286;22478;-57
2022/10/28 21:19:01;;;;;;;20.60;5.50;;;22.70;71.10;;;;;;213502;1288;22565;-58
2022/10/28 21:24:05;;;;;;;11.20;5.40;;;22.60;72.00;;;;;;213424;1283;22478;-57
2022/10/28 21:29:12;;;;;;;13.90;5.70;;;22.60;72.80;;;;;;213344;1294;25467;-62
2022/10/28 21:34:16;;;;;;;16.70;5.40;;;22.60;72.70;;;;;;213388;1288;25550;-57
2022/10/28 21:39:20;;;;;;;14.20;6.40;;;22.60;72.80;;;;;;213400;1284;25434;-58
2022/10/28 21:44:24;;;;;;;9.80;5.30;;;22.60;73.00;;;;;;213402;1293;24234;-57
2022/10/28 21:49:27;;;;;;;11.90;5.50;;;22.60;73.10;;;;;;213548;1288;22673;-58
2022/10/28 21:54:32;;;;;;;12.30;5.10;;;22.60;73.10;;;;;;213417;1288;22499;-57
2022/10/28 21:59:36;;;;;;;11.80;5.40;;;22.60;73.50;;;;;;213413;1283;22649;-56
2022/10/28 22:04:39;;;;;;;8.60;5.00;;;22.50;73.70;;;;;;213448;1288;25652;-57
2022/10/28 22:09:44;;;;;;;10.20;4.90;;;22.60;73.20;;;;;;213497;1291;22739;-53
2022/10/28 22:14:53;;;;;;;8.40;4.80;;;22.50;73.20;;;;;;213327;1287;22607;-57
2022/10/28 22:19:56;;;;;;;12.80;5.70;;;22.50;73.50;;;;;;213315;1285;22487;-57
2022/10/28 22:25:00;;;;;;;10.80;5.40;;;22.50;73.00;;;;;;213379;1286;22604;-57
2022/10/28 22:30:07;;;;;;;9.30;5.30;;;22.50;73.30;;;;;;213564;1284;23923;-57
2022/10/28 22:35:11;;;;;;;8.70;5.40;;;22.50;72.80;;;;;;213466;1288;24247;-59
2022/10/28 22:40:15;;;;;;;9.90;5.50;;;22.40;72.50;;;;;;213343;1293;23020;-59
2022/10/28 22:45:18;;;;;;;8.90;5.00;;;22.40;72.10;;;;;;213590;1288;25314;-59
2022/10/28 22:50:21;;;;;;;9.30;5.20;;;22.40;72.10;;;;;;213669;1280;22490;-61
2022/10/28 22:55:25;;;;;;;10.90;5.10;;;22.30;72.30;;;;;;213433;1284;22584;-57
2022/10/28 23:00:28;;;;;;;10.80;5.30;;;22.30;72.60;;;;;;213243;1288;24331;-59
2022/10/28 23:05:32;;;;;;;8.70;5.00;;;22.30;72.10;;;;;;213425;1288;26467;-59
2022/10/28 23:10:35;;;;;;;11.20;5.20;;;22.40;72.50;;;;;;213701;1288;25665;-55
2022/10/28 23:15:39;;;;;;;7.60;4.60;;;22.40;72.50;;;;;;213300;1283;22921;-58
2022/10/28 23:20:42;;;;;;;10.00;5.30;;;22.40;73.00;;;;;;213591;1280;22558;-57
2022/10/28 23:25:53;;;;;;;9.20;5.10;;;22.40;73.40;;;;;;213458;1286;22490;-56
2022/10/28 23:31:01;;;;;;;9.80;5.10;;;22.30;73.60;;;;;;213480;1288;22611;-57
2022/10/28 23:36:05;;;;;;;9.50;5.10;;;22.30;73.30;;;;;;213602;1288;24693;-57
2022/10/28 23:41:14;;;;;;;8.70;4.70;;;22.30;73.20;;;;;;213745;1288;25737;-55
2022/10/28 23:46:17;;;;;;;11.70;4.70;;;22.30;73.20;;;;;;213423;1285;22588;-57
2022/10/28 23:51:21;;;;;;;11.90;5.10;;;22.30;73.60;;;;;;213425;1288;25329;-56
2022/10/28 23:56:24;;;;;;;11.50;5.40;;;22.30;73.60;;;;;;213367;1294;22753;-56
